createdAt,value
2018-02-20T00:00:28.774Z,-1.19
2018-02-20T00:03:32.826Z,-1.38
2018-02-20T00:06:36.872Z,-1.24
2018-02-20T00:09:40.168Z,-1.23
2018-02-20T00:12:43.458Z,-1.09
2018-02-20T00:15:46.741Z,-1.05
2018-02-20T00:18:50.031Z,-1.35
2018-02-20T00:21:54.905Z,-1.53
2018-02-20T00:24:58.185Z,-1.30
2018-02-20T00:28:01.533Z,-1.23
2018-02-20T00:31:05.591Z,-1.21
2018-02-20T00:34:09.006Z,-1.13
2018-02-20T00:37:12.848Z,-1.02
2018-02-20T00:40:16.133Z,-1.42
2018-02-20T00:43:19.538Z,-1.25
2018-02-20T00:46:22.873Z,-1.15
2018-02-20T00:49:27.272Z,-1.27
2018-02-20T00:52:30.553Z,-1.29
2018-02-20T00:55:33.833Z,-1.03
2018-02-20T00:58:37.128Z,-1.51
2018-02-20T01:01:40.433Z,-1.25
2018-02-20T01:04:43.718Z,-1.12
2018-02-20T01:07:46.994Z,-1.14
2018-02-20T01:10:51.068Z,-1.18
2018-02-20T01:13:56.904Z,-1.21
2018-02-20T01:17:00.176Z,-1.21
2018-02-20T01:20:03.700Z,-1.21
2018-02-20T01:23:06.991Z,-1.21
2018-02-20T01:26:11.272Z,-1.35
2018-02-20T01:29:15.231Z,-1.38
2018-02-20T01:32:18.504Z,-1.37
2018-02-20T01:35:22.593Z,-1.43
2018-02-20T01:38:25.894Z,-1.42
2018-02-20T01:41:29.302Z,-1.50
2018-02-20T01:44:32.730Z,-1.50
2018-02-20T01:47:36.921Z,-1.48
2018-02-20T01:54:09.559Z,-1.36
2018-02-20T01:57:13.648Z,-1.32
2018-02-20T02:00:17.732Z,-1.34
2018-02-20T02:03:21.824Z,-1.28
2018-02-20T02:06:25.157Z,-1.20
2018-02-20T02:09:28.892Z,-1.22
2018-02-20T02:12:33.062Z,-1.25
2018-02-20T02:15:36.349Z,-1.18
2018-02-20T02:18:39.642Z,-1.12
2018-02-20T02:21:43.965Z,-1.14
2018-02-20T02:24:47.303Z,-1.21
2018-02-20T02:27:50.587Z,-1.20
2018-02-20T02:30:53.880Z,-1.21
2018-02-20T02:33:57.158Z,-1.10
2018-02-20T02:37:00.453Z,-1.14
2018-02-20T02:40:04.042Z,-1.08
2018-02-20T02:43:07.328Z,-0.95
2018-02-20T02:46:10.621Z,-1.02
2018-02-20T02:49:14.774Z,-1.04
2018-02-20T02:52:18.054Z,-1.00
2018-02-20T02:55:21.346Z,-1.16
2018-02-20T02:58:24.873Z,-1.11
2018-02-20T03:01:28.162Z,-1.20
2018-02-20T03:04:32.388Z,-1.38
2018-02-20T03:07:35.675Z,-1.53
2018-02-20T03:10:38.972Z,-1.43
2018-02-20T03:13:42.241Z,-1.30
2018-02-20T03:16:46.291Z,-1.20
2018-02-20T03:19:49.574Z,-1.16
2018-02-20T03:22:52.879Z,-1.33
2018-02-20T03:25:57.009Z,-1.20
2018-02-20T03:29:00.290Z,-1.26
2018-02-20T03:32:03.582Z,-1.27
2018-02-20T03:35:06.906Z,-1.25
2018-02-20T03:38:10.294Z,-1.34
2018-02-20T03:41:13.901Z,-1.48
2018-02-20T03:44:17.176Z,-1.60
2018-02-20T03:47:21.722Z,-1.48
2018-02-20T03:50:25.028Z,-1.50
2018-02-20T03:53:28.318Z,-1.49
2018-02-20T03:56:31.617Z,-1.65
2018-02-20T03:59:35.665Z,-1.54
2018-02-20T04:02:38.954Z,-1.50
2018-02-20T04:05:42.232Z,-1.43
2018-02-20T04:08:45.650Z,-1.47
2018-02-20T04:11:48.927Z,-1.51
2018-02-20T04:14:52.197Z,-1.45
2018-02-20T04:17:55.515Z,-1.46
2018-02-20T04:20:58.889Z,-1.45
2018-02-20T04:24:02.169Z,-1.37
2018-02-20T04:27:06.225Z,-1.59
2018-02-20T04:30:09.585Z,-1.61
2018-02-20T04:33:14.000Z,-1.56
2018-02-20T04:36:17.282Z,-1.43
2018-02-20T04:39:20.559Z,-1.48
2018-02-20T04:42:23.917Z,-1.72
2018-02-20T04:45:27.980Z,-1.73
2018-02-20T04:48:31.280Z,-1.63
2018-02-20T04:51:34.578Z,-1.70
2018-02-20T04:54:37.888Z,-1.83
2018-02-20T04:57:41.181Z,-2.08
2018-02-20T05:00:44.494Z,-1.90
2018-02-20T05:03:47.798Z,-1.88
2018-02-20T05:06:51.141Z,-1.92
2018-02-20T05:09:54.428Z,-1.99
2018-02-20T05:13:06.169Z,-1.87
2018-02-20T05:16:09.535Z,-1.92
2018-02-20T05:19:12.824Z,-1.83
2018-02-20T05:22:16.100Z,-1.60
2018-02-20T05:25:20.230Z,-1.58
2018-02-20T05:28:23.509Z,-1.75
2018-02-20T05:31:27.549Z,-1.78
2018-02-20T05:34:30.813Z,-1.63
2018-02-20T05:37:34.129Z,-1.59
2018-02-20T05:40:38.182Z,-1.69
2018-02-20T05:43:41.454Z,-1.69
2018-02-20T05:46:46.010Z,-1.73
2018-02-20T05:49:49.281Z,-1.72
2018-02-20T05:52:52.604Z,-1.87
2018-02-20T05:55:56.869Z,-1.81
2018-02-20T05:59:00.914Z,-2.10
2018-02-20T06:02:04.196Z,-2.09
2018-02-20T06:05:08.242Z,-1.91
2018-02-20T06:08:11.541Z,-1.77
2018-02-20T06:11:14.921Z,-1.87
2018-02-20T06:14:18.217Z,-2.09
2018-02-20T06:17:21.524Z,-1.96
2018-02-20T06:20:24.796Z,-1.86
2018-02-20T06:23:28.865Z,-1.76
2018-02-20T06:26:32.149Z,-1.74
2018-02-20T06:29:35.464Z,-1.69
2018-02-20T06:32:38.726Z,-1.94
2018-02-20T06:35:42.016Z,-1.74
2018-02-20T06:38:45.323Z,-2.05
2018-02-20T06:41:48.598Z,-2.04
2018-02-20T06:44:52.693Z,-1.81
2018-02-20T06:47:56.025Z,-1.58
2018-02-20T06:50:59.323Z,-1.52
2018-02-20T06:54:02.622Z,-1.66
2018-02-20T06:57:06.661Z,-1.48
2018-02-20T07:00:09.941Z,-1.39
2018-02-20T07:03:13.211Z,-1.31
2018-02-20T07:06:17.249Z,-1.34
2018-02-20T07:09:20.531Z,-1.38
2018-02-20T07:12:24.578Z,-1.41
2018-02-20T07:15:28.629Z,-1.46
2018-02-20T07:18:31.903Z,-1.41
2018-02-20T07:21:35.179Z,-1.60
2018-02-20T07:24:38.446Z,-1.79
2018-02-20T07:27:42.585Z,-1.68
2018-02-20T07:30:45.874Z,-1.46
2018-02-20T07:33:49.988Z,-1.49
2018-02-20T07:36:53.306Z,-1.19
2018-02-20T07:39:56.684Z,-1.24
2018-02-20T07:43:00.721Z,-1.27
2018-02-20T07:46:03.991Z,-1.19
2018-02-20T07:49:08.043Z,-1.02
2018-02-20T07:52:11.354Z,-0.87
2018-02-20T07:55:14.613Z,-0.88
2018-02-20T07:58:17.928Z,-0.66
2018-02-20T08:01:21.359Z,-0.57
2018-02-20T08:04:24.714Z,-0.74
2018-02-20T08:07:30.599Z,-0.50
2018-02-20T08:10:34.793Z,-0.26
2018-02-20T08:13:38.099Z,-0.30
2018-02-20T08:16:41.387Z,-0.19
2018-02-20T08:19:44.658Z,0.03
2018-02-20T08:22:48.707Z,-0.13
2018-02-20T08:25:52.098Z,0.05
2018-02-20T08:28:55.391Z,0.00
2018-02-20T08:31:58.654Z,0.20
2018-02-20T08:35:01.925Z,0.12
2018-02-20T08:38:05.213Z,0.11
2018-02-20T08:41:08.502Z,0.14
2018-02-20T08:44:11.899Z,-0.03
2018-02-20T08:47:15.200Z,0.02
2018-02-20T08:50:18.502Z,-0.09
2018-02-20T08:53:22.941Z,0.06
2018-02-20T08:56:26.224Z,0.02
2018-02-20T08:59:29.525Z,-0.27
2018-02-20T09:02:32.830Z,-0.12
2018-02-20T09:05:36.150Z,-0.16
2018-02-20T09:08:39.917Z,-0.10
2018-02-20T09:11:43.213Z,-0.07
2018-02-20T09:14:46.563Z,-0.20
2018-02-20T09:17:49.843Z,-0.24
2018-02-20T09:20:54.361Z,-0.25
2018-02-20T09:23:57.621Z,0.02
2018-02-20T09:27:00.906Z,0.15
2018-02-20T09:30:05.602Z,0.40
2018-02-20T09:33:08.865Z,0.44
2018-02-20T09:36:12.140Z,0.13
2018-02-20T09:39:15.417Z,-0.26
2018-02-20T09:42:19.469Z,0.19
2018-02-20T09:45:22.736Z,0.28
2018-02-20T09:48:26.773Z,0.38
2018-02-20T09:51:30.065Z,0.70
2018-02-20T09:54:33.338Z,0.87
2018-02-20T09:57:37.375Z,0.89
2018-02-20T10:00:41.418Z,1.12
2018-02-20T10:03:44.777Z,0.74
2018-02-20T10:06:48.052Z,0.31
2018-02-20T10:09:52.086Z,0.40
2018-02-20T10:12:55.361Z,0.96
2018-02-20T10:15:58.623Z,1.12
2018-02-20T10:19:02.667Z,1.31
2018-02-20T10:22:05.977Z,1.38
2018-02-20T10:25:09.326Z,1.42
2018-02-20T10:28:12.676Z,1.51
2018-02-20T10:31:15.986Z,1.73
2018-02-20T10:34:19.246Z,2.19
2018-02-20T10:37:22.526Z,1.79
2018-02-20T10:40:26.593Z,2.02
2018-02-20T10:43:29.886Z,2.01
2018-02-20T10:46:33.156Z,1.75
2018-02-20T10:49:36.426Z,1.89
2018-02-20T10:52:39.694Z,2.11
2018-02-20T10:55:43.019Z,1.82
2018-02-20T10:58:46.276Z,1.39
2018-02-20T11:01:49.544Z,1.57
2018-02-20T11:04:52.824Z,1.94
2018-02-20T11:07:56.337Z,1.96
2018-02-20T11:10:59.607Z,2.02
2018-02-20T11:14:02.926Z,2.06
2018-02-20T11:17:06.988Z,1.63
2018-02-20T11:20:10.250Z,1.59
2018-02-20T11:23:13.616Z,1.93
2018-02-20T11:26:17.749Z,1.60
2018-02-20T11:29:21.781Z,2.27
2018-02-20T11:32:25.047Z,2.39
2018-02-20T11:35:28.313Z,2.54
2018-02-20T11:38:31.641Z,2.67
2018-02-20T11:41:36.419Z,2.64
2018-02-20T11:44:39.773Z,1.92
2018-02-20T11:47:43.058Z,2.26
2018-02-20T11:50:46.464Z,2.47
2018-02-20T11:53:49.809Z,3.00
2018-02-20T11:56:53.101Z,3.31
2018-02-20T11:59:57.605Z,3.14
2018-02-20T12:03:01.642Z,2.82
2018-02-20T12:06:04.921Z,2.98
2018-02-20T12:09:08.958Z,3.34
2018-02-20T12:12:12.242Z,3.11
2018-02-20T12:15:16.329Z,2.76
2018-02-20T12:18:19.618Z,2.94
2018-02-20T12:21:22.922Z,3.01
2018-02-20T12:24:28.217Z,2.46
2018-02-20T12:27:31.502Z,2.22
2018-02-20T12:30:34.832Z,2.16
2018-02-20T12:33:38.143Z,2.65
2018-02-20T12:36:41.420Z,2.56
2018-02-20T12:39:44.823Z,2.83
2018-02-20T12:42:48.173Z,2.60
2018-02-20T12:45:51.401Z,2.44
2018-02-20T12:48:54.693Z,2.62
2018-02-20T12:51:59.968Z,2.96
2018-02-20T12:55:03.253Z,2.37
2018-02-20T12:58:06.537Z,2.12
2018-02-20T13:01:09.827Z,2.33
2018-02-20T13:04:13.163Z,2.46
2018-02-20T13:07:16.450Z,2.66
2018-02-20T13:10:19.725Z,2.66
2018-02-20T13:13:23.018Z,2.40
2018-02-20T13:16:26.293Z,2.27
2018-02-20T13:19:30.957Z,2.28
2018-02-20T13:22:34.373Z,2.08
2018-02-20T13:25:37.715Z,1.86
2018-02-20T13:28:41.854Z,1.71
2018-02-20T13:31:45.149Z,1.86
2018-02-20T13:34:49.406Z,2.01
2018-02-20T13:37:52.698Z,1.86
2018-02-20T13:40:56.900Z,1.68
2018-02-20T13:44:00.790Z,1.61
2018-02-20T13:47:04.844Z,1.63
2018-02-20T13:50:08.137Z,1.55
2018-02-20T13:53:11.521Z,1.52
2018-02-20T13:56:15.037Z,1.30
2018-02-20T13:59:19.071Z,1.74
2018-02-20T14:02:22.949Z,1.78
2018-02-20T14:05:26.230Z,1.91
2018-02-20T14:08:31.729Z,1.75
2018-02-20T14:11:35.005Z,1.63
2018-02-20T14:14:38.297Z,1.57
2018-02-20T14:17:41.589Z,1.57
2018-02-20T14:20:44.949Z,1.60
2018-02-20T14:23:48.304Z,1.60
2018-02-20T14:26:51.583Z,1.36
2018-02-20T14:29:54.853Z,1.65
2018-02-20T14:32:58.129Z,1.46
2018-02-20T14:36:03.039Z,1.51
2018-02-20T14:39:06.351Z,1.40
2018-02-20T14:42:09.837Z,1.74
2018-02-20T14:45:13.127Z,1.84
2018-02-20T14:48:16.405Z,1.94
2018-02-20T14:51:20.440Z,1.74
2018-02-20T14:54:23.828Z,1.82
2018-02-20T14:57:27.203Z,1.66
2018-02-20T15:00:30.571Z,1.95
2018-02-20T15:03:35.364Z,1.99
2018-02-20T15:06:38.694Z,1.80
2018-02-20T15:09:41.965Z,1.80
2018-02-20T15:12:45.525Z,1.43
2018-02-20T15:15:48.797Z,1.23
2018-02-20T15:18:52.069Z,1.32
2018-02-20T15:21:55.368Z,1.17
2018-02-20T15:24:58.648Z,1.02
2018-02-20T15:28:02.290Z,0.82
2018-02-20T15:31:05.557Z,0.57
2018-02-20T15:34:08.855Z,0.39
2018-02-20T15:37:12.182Z,0.44
2018-02-20T15:40:15.465Z,0.04
2018-02-20T15:43:18.925Z,0.24
2018-02-20T15:46:22.951Z,0.19
2018-02-20T15:49:27.268Z,0.02
2018-02-20T15:52:31.321Z,-0.16
2018-02-20T15:55:34.915Z,-0.12
2018-02-20T15:58:38.189Z,-0.15
2018-02-20T16:01:41.496Z,-0.19
2018-02-20T16:04:44.794Z,-0.21
2018-02-20T16:07:48.096Z,-0.27
2018-02-20T16:10:51.380Z,-0.43
2018-02-20T16:17:29.566Z,-0.43
2018-02-20T16:20:32.852Z,-0.34
2018-02-20T16:23:36.125Z,-0.38
2018-02-20T16:26:39.398Z,-0.43
2018-02-20T16:29:43.442Z,-0.35
2018-02-20T16:32:46.739Z,-0.34
2018-02-20T16:35:50.030Z,-0.26
2018-02-20T16:38:53.321Z,-0.51
2018-02-20T16:41:57.355Z,-0.62
2018-02-20T16:45:00.646Z,-0.48
2018-02-20T16:48:03.947Z,-0.53
2018-02-20T16:51:07.235Z,-0.60
2018-02-20T16:54:10.510Z,-0.46
2018-02-20T16:57:14.828Z,-0.66
2018-02-20T17:00:18.121Z,-0.68
2018-02-20T17:03:22.234Z,-0.68
2018-02-20T17:06:26.336Z,-0.67
2018-02-20T17:09:29.612Z,-0.79
2018-02-20T17:12:32.887Z,-0.69
2018-02-20T17:15:37.641Z,-0.70
2018-02-20T17:18:40.920Z,-0.67
2018-02-20T17:21:44.234Z,-0.66
2018-02-20T17:24:47.534Z,-0.67
2018-02-20T17:27:50.812Z,-0.75
2018-02-20T17:30:54.214Z,-0.87
2018-02-20T17:34:09.371Z,-1.00
2018-02-20T17:37:13.386Z,-0.95
2018-02-20T17:40:23.119Z,-0.88
2018-02-20T17:43:27.258Z,-0.91
2018-02-20T17:46:31.044Z,-0.89
2018-02-20T17:49:34.451Z,-0.78
2018-02-20T17:52:38.667Z,-0.89
2018-02-20T17:55:42.747Z,-0.85
2018-02-20T17:58:46.044Z,-1.00
2018-02-20T18:01:49.347Z,-1.16
2018-02-20T18:04:52.631Z,-1.00
2018-02-20T18:07:55.925Z,-1.07
2018-02-20T18:11:00.062Z,-1.00
2018-02-20T18:14:03.372Z,-1.12
2018-02-20T18:17:06.725Z,-1.18
2018-02-20T18:20:10.014Z,-1.23
2018-02-20T18:23:13.356Z,-1.19
2018-02-20T18:26:16.705Z,-1.24
2018-02-20T18:29:20.735Z,-1.12
2018-02-20T18:32:24.046Z,-1.09
2018-02-20T18:35:27.549Z,-1.09
2018-02-20T18:38:30.907Z,-1.14
2018-02-20T18:41:35.061Z,-1.44
2018-02-20T18:44:38.389Z,-1.28
2018-02-20T18:47:41.687Z,-1.32
2018-02-20T18:50:44.963Z,-1.26
2018-02-20T18:53:48.403Z,-1.22
2018-02-20T18:56:51.702Z,-1.40
2018-02-20T18:59:55.742Z,-1.22
2018-02-20T19:02:59.036Z,-1.06
2018-02-20T19:06:02.302Z,-1.14
2018-02-20T19:09:05.633Z,-1.19
2018-02-20T19:12:08.922Z,-1.33
2018-02-20T19:15:12.990Z,-1.18
2018-02-20T19:18:16.315Z,-1.24
2018-02-20T19:21:19.641Z,-1.22
2018-02-20T19:24:23.639Z,-1.16
2018-02-20T19:27:27.817Z,-1.16
2018-02-20T19:30:31.161Z,-1.30
2018-02-20T19:33:34.481Z,-1.25
2018-02-20T19:36:37.749Z,-1.40
2018-02-20T19:39:41.950Z,-1.38
2018-02-20T19:42:45.538Z,-1.29
2018-02-20T19:45:48.828Z,-1.40
2018-02-20T19:48:52.157Z,-1.27
2018-02-20T19:51:55.729Z,-1.22
2018-02-20T19:54:59.030Z,-1.28
2018-02-20T19:58:02.362Z,-1.26
2018-02-20T20:01:05.675Z,-1.29
2018-02-20T20:04:10.104Z,-1.41
2018-02-20T20:07:13.715Z,-1.44
2018-02-20T20:10:17.246Z,-1.54
2018-02-20T20:13:21.021Z,-1.57
2018-02-20T20:16:24.537Z,-1.57
2018-02-20T20:19:28.326Z,-1.71
2018-02-20T20:22:32.547Z,-1.60
2018-02-20T20:25:35.909Z,-1.48
2018-02-20T20:28:39.259Z,-1.40
2018-02-20T20:31:43.623Z,-1.74
2018-02-20T20:34:47.256Z,-1.65
2018-02-20T20:37:50.974Z,-1.72
2018-02-20T20:40:54.545Z,-1.71
2018-02-20T20:43:58.093Z,-1.59
2018-02-20T20:47:02.247Z,-1.75
2018-02-20T20:50:06.698Z,-1.82
2018-02-20T20:53:10.231Z,-1.79
2018-02-20T20:56:14.835Z,-1.85
2018-02-20T20:59:19.448Z,-1.95
2018-02-20T21:02:23.761Z,-1.79
2018-02-20T21:05:27.063Z,-1.75
2018-02-20T21:08:30.389Z,-1.81
2018-02-20T21:11:34.489Z,-1.79
2018-02-20T21:14:37.786Z,-1.77
2018-02-20T21:17:41.066Z,-1.83
2018-02-20T21:20:45.348Z,-1.86
2018-02-20T21:23:49.398Z,-2.02
2018-02-20T21:26:52.729Z,-1.90
2018-02-20T21:29:55.992Z,-1.90
2018-02-20T21:32:59.275Z,-1.77
2018-02-20T21:36:02.566Z,-1.73
2018-02-20T21:39:05.870Z,-1.74
2018-02-20T21:42:09.197Z,-2.08
2018-02-20T21:45:12.490Z,-1.83
2018-02-20T21:48:16.534Z,-1.86
2018-02-20T21:51:19.872Z,-1.86
2018-02-20T21:54:23.909Z,-1.78
2018-02-20T21:57:27.191Z,-1.70
2018-02-20T22:00:30.482Z,-1.65
2018-02-20T22:03:33.782Z,-1.65
2018-02-20T22:06:37.065Z,-1.57
2018-02-20T22:09:41.104Z,-1.68
2018-02-20T22:12:44.398Z,-1.62
2018-02-20T22:15:47.678Z,-1.81
2018-02-20T22:18:51.726Z,-1.84
2018-02-20T22:21:55.006Z,-1.64
2018-02-20T22:24:58.314Z,-1.62
2018-02-20T22:28:01.992Z,-1.89
2018-02-20T22:31:06.046Z,-1.67
2018-02-20T22:34:09.329Z,-1.98
2018-02-20T22:37:12.609Z,-1.99
2018-02-20T22:40:15.901Z,-1.80
2018-02-20T22:43:19.941Z,-1.65
2018-02-20T22:46:23.310Z,-1.66
2018-02-20T22:49:27.784Z,-1.56
2018-02-20T22:52:31.034Z,-1.54
2018-02-20T22:55:35.132Z,-1.81
2018-02-20T22:58:38.428Z,-2.04
2018-02-20T23:01:41.714Z,-1.86
2018-02-20T23:04:45.060Z,-1.80
2018-02-20T23:07:50.380Z,-1.67
2018-02-20T23:10:53.681Z,-1.69
2018-02-20T23:13:58.428Z,-1.54
2018-02-20T23:17:02.486Z,-1.68
2018-02-20T23:20:06.608Z,-1.56
2018-02-20T23:23:09.938Z,-1.48
2018-02-20T23:26:13.278Z,-1.55
2018-02-20T23:29:17.539Z,-1.49
2018-02-20T23:32:21.778Z,-1.71
2018-02-20T23:35:25.071Z,-1.63
2018-02-20T23:38:28.366Z,-1.57
2018-02-20T23:41:31.655Z,-1.56
2018-02-20T23:44:35.643Z,-1.51
2018-02-20T23:47:38.922Z,-1.45
2018-02-20T23:50:42.194Z,-1.58
2018-02-20T23:53:46.250Z,-1.58
2018-02-20T23:56:49.734Z,-1.54
2018-02-20T23:59:53.009Z,-1.50
